sensor_id;sensor_type;location;lat;lon;timestamp;P1;durP1;ratioP1;P2;durP2;ratioP2
72286;SDS011;60221;45.696;16.076;2023-07-29T00:00:11;4.30;;;1.30;;
72286;SDS011;60221;45.696;16.076;2023-07-29T00:02:40;6.30;;;1.40;;
72286;SDS011;60221;45.696;16.076;2023-07-29T00:05:06;4.90;;;1.50;;
72286;SDS011;60221;45.696;16.076;2023-07-29T00:07:33;4.60;;;1.40;;
72286;SDS011;60221;45.696;16.076;2023-07-29T00:10:00;6.80;;;1.20;;
72286;SDS011;60221;45.696;16.076;2023-07-29T00:12:27;5.50;;;1.50;;
72286;SDS011;60221;45.696;16.076;2023-07-29T00:14:54;5.90;;;1.50;;
72286;SDS011;60221;45.696;16.076;2023-07-29T00:17:20;6.50;;;1.30;;
72286;SDS011;60221;45.696;16.076;2023-07-29T00:19:47;6.60;;;1.90;;
72286;SDS011;60221;45.696;16.076;2023-07-29T00:22:14;5.90;;;1.30;;
72286;SDS011;60221;45.696;16.076;2023-07-29T00:24:41;8.10;;;1.50;;
72286;SDS011;60221;45.696;16.076;2023-07-29T00:27:08;5.30;;;1.30;;
72286;SDS011;60221;45.696;16.076;2023-07-29T00:29:34;6.40;;;1.50;;
72286;SDS011;60221;45.696;16.076;2023-07-29T00:32:01;4.10;;;1.10;;
72286;SDS011;60221;45.696;16.076;2023-07-29T00:34:28;4.70;;;1.30;;
72286;SDS011;60221;45.696;16.076;2023-07-29T00:36:55;5.90;;;1.60;;
72286;SDS011;60221;45.696;16.076;2023-07-29T00:39:21;6.50;;;1.20;;
72286;SDS011;60221;45.696;16.076;2023-07-29T00:41:49;6.60;;;1.10;;
72286;SDS011;60221;45.696;16.076;2023-07-29T00:44:16;8.50;;;1.60;;
72286;SDS011;60221;45.696;16.076;2023-07-29T00:46:42;5.40;;;1.30;;
72286;SDS011;60221;45.696;16.076;2023-07-29T00:49:11;5.00;;;1.30;;
72286;SDS011;60221;45.696;16.076;2023-07-29T00:51:40;5.80;;;1.80;;
72286;SDS011;60221;45.696;16.076;2023-07-29T00:54:06;3.70;;;1.00;;
72286;SDS011;60221;45.696;16.076;2023-07-29T00:56:33;5.30;;;1.60;;
72286;SDS011;60221;45.696;16.076;2023-07-29T00:59:01;5.20;;;1.40;;
72286;SDS011;60221;45.696;16.076;2023-07-29T01:01:28;5.20;;;1.50;;
72286;SDS011;60221;45.696;16.076;2023-07-29T01:03:56;4.40;;;1.40;;
72286;SDS011;60221;45.696;16.076;2023-07-29T01:11:47;7.30;;;1.40;;
72286;SDS011;60221;45.696;16.076;2023-07-29T01:16:47;5.40;;;1.40;;
72286;SDS011;60221;45.696;16.076;2023-07-29T01:19:23;4.90;;;1.50;;
72286;SDS011;60221;45.696;16.076;2023-07-29T01:21:54;3.80;;;1.30;;
72286;SDS011;60221;45.696;16.076;2023-07-29T01:24:21;4.30;;;1.20;;
72286;SDS011;60221;45.696;16.076;2023-07-29T01:26:48;3.90;;;0.80;;
72286;SDS011;60221;45.696;16.076;2023-07-29T01:29:16;6.80;;;1.20;;
72286;SDS011;60221;45.696;16.076;2023-07-29T01:31:43;7.90;;;1.90;;
72286;SDS011;60221;45.696;16.076;2023-07-29T01:34:19;4.70;;;1.10;;
72286;SDS011;60221;45.696;16.076;2023-07-29T01:36:48;3.80;;;1.30;;
72286;SDS011;60221;45.696;16.076;2023-07-29T01:39:17;4.30;;;1.00;;
72286;SDS011;60221;45.696;16.076;2023-07-29T01:41:44;7.10;;;1.60;;
72286;SDS011;60221;45.696;16.076;2023-07-29T01:44:11;5.90;;;1.40;;
72286;SDS011;60221;45.696;16.076;2023-07-29T01:46:38;5.70;;;1.60;;
72286;SDS011;60221;45.696;16.076;2023-07-29T01:49:06;5.40;;;1.30;;
72286;SDS011;60221;45.696;16.076;2023-07-29T01:51:32;5.40;;;1.40;;
72286;SDS011;60221;45.696;16.076;2023-07-29T01:53:59;6.30;;;1.30;;
72286;SDS011;60221;45.696;16.076;2023-07-29T01:56:26;4.20;;;1.20;;
72286;SDS011;60221;45.696;16.076;2023-07-29T01:58:54;5.10;;;1.40;;
72286;SDS011;60221;45.696;16.076;2023-07-29T02:01:21;4.70;;;1.40;;
72286;SDS011;60221;45.696;16.076;2023-07-29T02:03:48;6.40;;;1.70;;
72286;SDS011;60221;45.696;16.076;2023-07-29T02:06:21;6.40;;;1.70;;
72286;SDS011;60221;45.696;16.076;2023-07-29T02:08:48;4.60;;;1.40;;
72286;SDS011;60221;45.696;16.076;2023-07-29T02:11:15;5.00;;;1.60;;
72286;SDS011;60221;45.696;16.076;2023-07-29T02:13:42;4.40;;;1.40;;
72286;SDS011;60221;45.696;16.076;2023-07-29T02:16:09;5.50;;;1.40;;
72286;SDS011;60221;45.696;16.076;2023-07-29T02:18:36;6.50;;;1.60;;
72286;SDS011;60221;45.696;16.076;2023-07-29T02:21:03;6.40;;;1.40;;
72286;SDS011;60221;45.696;16.076;2023-07-29T02:23:31;3.40;;;1.00;;
72286;SDS011;60221;45.696;16.076;2023-07-29T02:25:57;4.70;;;1.30;;
72286;SDS011;60221;45.696;16.076;2023-07-29T02:28:24;4.70;;;1.30;;
72286;SDS011;60221;45.696;16.076;2023-07-29T02:31:08;4.10;;;1.60;;
72286;SDS011;60221;45.696;16.076;2023-07-29T02:33:35;6.60;;;2.10;;
72286;SDS011;60221;45.696;16.076;2023-07-29T02:36:02;5.20;;;1.80;;
72286;SDS011;60221;45.696;16.076;2023-07-29T02:38:29;4.30;;;1.40;;
72286;SDS011;60221;45.696;16.076;2023-07-29T02:40:55;4.70;;;1.20;;
72286;SDS011;60221;45.696;16.076;2023-07-29T02:43:22;7.90;;;1.80;;
72286;SDS011;60221;45.696;16.076;2023-07-29T02:45:49;4.20;;;1.50;;
72286;SDS011;60221;45.696;16.076;2023-07-29T02:48:15;4.80;;;1.70;;
72286;SDS011;60221;45.696;16.076;2023-07-29T02:50:42;5.20;;;1.40;;
72286;SDS011;60221;45.696;16.076;2023-07-29T02:53:09;6.10;;;1.30;;
72286;SDS011;60221;45.696;16.076;2023-07-29T02:55:39;3.70;;;1.30;;
72286;SDS011;60221;45.696;16.076;2023-07-29T02:58:05;3.90;;;1.10;;
72286;SDS011;60221;45.696;16.076;2023-07-29T03:00:32;4.20;;;1.20;;
72286;SDS011;60221;45.696;16.076;2023-07-29T03:02:59;6.90;;;1.70;;
72286;SDS011;60221;45.696;16.076;2023-07-29T03:05:29;5.00;;;1.50;;
72286;SDS011;60221;45.696;16.076;2023-07-29T03:07:57;5.40;;;1.60;;
72286;SDS011;60221;45.696;16.076;2023-07-29T03:10:24;7.60;;;1.50;;
72286;SDS011;60221;45.696;16.076;2023-07-29T03:12:50;4.90;;;1.50;;
72286;SDS011;60221;45.696;16.076;2023-07-29T03:15:17;9.00;;;1.70;;
72286;SDS011;60221;45.696;16.076;2023-07-29T03:17:44;7.00;;;1.50;;
72286;SDS011;60221;45.696;16.076;2023-07-29T03:20:11;4.00;;;1.10;;
72286;SDS011;60221;45.696;16.076;2023-07-29T03:22:38;6.50;;;1.60;;
72286;SDS011;60221;45.696;16.076;2023-07-29T03:25:05;5.40;;;1.30;;
72286;SDS011;60221;45.696;16.076;2023-07-29T03:27:32;5.40;;;1.10;;
72286;SDS011;60221;45.696;16.076;2023-07-29T03:30:00;5.40;;;1.20;;
72286;SDS011;60221;45.696;16.076;2023-07-29T03:32:27;3.80;;;1.30;;
72286;SDS011;60221;45.696;16.076;2023-07-29T03:34:53;4.60;;;1.20;;
72286;SDS011;60221;45.696;16.076;2023-07-29T03:37:20;5.50;;;1.40;;
72286;SDS011;60221;45.696;16.076;2023-07-29T03:39:47;5.10;;;1.70;;
72286;SDS011;60221;45.696;16.076;2023-07-29T03:42:14;4.90;;;1.40;;
72286;SDS011;60221;45.696;16.076;2023-07-29T03:44:41;4.80;;;1.10;;
72286;SDS011;60221;45.696;16.076;2023-07-29T03:47:07;7.30;;;1.20;;
72286;SDS011;60221;45.696;16.076;2023-07-29T03:49:34;6.30;;;1.20;;
72286;SDS011;60221;45.696;16.076;2023-07-29T03:52:01;5.10;;;1.40;;
72286;SDS011;60221;45.696;16.076;2023-07-29T03:54:29;5.20;;;1.30;;
72286;SDS011;60221;45.696;16.076;2023-07-29T03:56:56;4.60;;;1.20;;
72286;SDS011;60221;45.696;16.076;2023-07-29T03:59:22;5.00;;;1.00;;
72286;SDS011;60221;45.696;16.076;2023-07-29T04:01:49;4.80;;;1.30;;
72286;SDS011;60221;45.696;16.076;2023-07-29T04:04:16;5.70;;;1.30;;
72286;SDS011;60221;45.696;16.076;2023-07-29T04:06:43;4.90;;;1.20;;
72286;SDS011;60221;45.696;16.076;2023-07-29T04:09:09;4.50;;;1.20;;
72286;SDS011;60221;45.696;16.076;2023-07-29T04:11:36;4.70;;;1.10;;
72286;SDS011;60221;45.696;16.076;2023-07-29T04:14:03;4.10;;;1.10;;
72286;SDS011;60221;45.696;16.076;2023-07-29T04:16:30;4.90;;;1.40;;
72286;SDS011;60221;45.696;16.076;2023-07-29T04:18:57;4.70;;;1.30;;
72286;SDS011;60221;45.696;16.076;2023-07-29T04:21:23;4.70;;;1.30;;
72286;SDS011;60221;45.696;16.076;2023-07-29T04:23:50;4.90;;;1.60;;
72286;SDS011;60221;45.696;16.076;2023-07-29T04:26:17;3.20;;;0.90;;
72286;SDS011;60221;45.696;16.076;2023-07-29T04:28:43;4.20;;;1.70;;
72286;SDS011;60221;45.696;16.076;2023-07-29T04:31:10;5.70;;;1.40;;
72286;SDS011;60221;45.696;16.076;2023-07-29T04:33:37;5.00;;;1.30;;
72286;SDS011;60221;45.696;16.076;2023-07-29T04:36:03;4.60;;;1.30;;
72286;SDS011;60221;45.696;16.076;2023-07-29T04:38:31;4.90;;;1.60;;
72286;SDS011;60221;45.696;16.076;2023-07-29T04:40:59;5.20;;;1.70;;
72286;SDS011;60221;45.696;16.076;2023-07-29T04:43:28;7.30;;;1.70;;
72286;SDS011;60221;45.696;16.076;2023-07-29T04:45:54;5.30;;;1.90;;
72286;SDS011;60221;45.696;16.076;2023-07-29T04:48:21;4.90;;;2.20;;
72286;SDS011;60221;45.696;16.076;2023-07-29T04:50:48;5.20;;;2.30;;
72286;SDS011;60221;45.696;16.076;2023-07-29T04:53:15;5.10;;;2.40;;
72286;SDS011;60221;45.696;16.076;2023-07-29T04:55:42;6.00;;;2.60;;
72286;SDS011;60221;45.696;16.076;2023-07-29T04:58:09;5.00;;;2.00;;
72286;SDS011;60221;45.696;16.076;2023-07-29T05:00:36;7.00;;;3.00;;
72286;SDS011;60221;45.696;16.076;2023-07-29T05:03:03;5.30;;;2.90;;
72286;SDS011;60221;45.696;16.076;2023-07-29T05:05:30;4.90;;;2.60;;
72286;SDS011;60221;45.696;16.076;2023-07-29T05:07:56;7.30;;;2.80;;
72286;SDS011;60221;45.696;16.076;2023-07-29T05:10:23;6.60;;;2.60;;
72286;SDS011;60221;45.696;16.076;2023-07-29T05:12:50;4.90;;;2.20;;
72286;SDS011;60221;45.696;16.076;2023-07-29T05:15:17;7.20;;;2.80;;
72286;SDS011;60221;45.696;16.076;2023-07-29T05:17:45;6.50;;;2.70;;
72286;SDS011;60221;45.696;16.076;2023-07-29T05:20:12;6.60;;;3.00;;
72286;SDS011;60221;45.696;16.076;2023-07-29T05:22:38;6.70;;;2.80;;
72286;SDS011;60221;45.696;16.076;2023-07-29T05:25:05;6.10;;;2.80;;
72286;SDS011;60221;45.696;16.076;2023-07-29T05:27:32;6.10;;;2.40;;
72286;SDS011;60221;45.696;16.076;2023-07-29T05:29:59;7.60;;;2.80;;
72286;SDS011;60221;45.696;16.076;2023-07-29T05:32:25;5.60;;;2.70;;
72286;SDS011;60221;45.696;16.076;2023-07-29T05:34:52;5.10;;;2.70;;
72286;SDS011;60221;45.696;16.076;2023-07-29T05:37:20;5.90;;;2.50;;
72286;SDS011;60221;45.696;16.076;2023-07-29T05:39:46;6.10;;;2.50;;
72286;SDS011;60221;45.696;16.076;2023-07-29T05:42:13;5.80;;;2.70;;
72286;SDS011;60221;45.696;16.076;2023-07-29T05:44:40;6.00;;;2.50;;
72286;SDS011;60221;45.696;16.076;2023-07-29T05:47:06;6.10;;;2.90;;
72286;SDS011;60221;45.696;16.076;2023-07-29T05:49:33;8.70;;;2.70;;
72286;SDS011;60221;45.696;16.076;2023-07-29T05:52:00;7.10;;;2.70;;
72286;SDS011;60221;45.696;16.076;2023-07-29T05:54:27;7.80;;;2.70;;
72286;SDS011;60221;45.696;16.076;2023-07-29T05:56:53;5.90;;;2.90;;
72286;SDS011;60221;45.696;16.076;2023-07-29T05:59:20;6.00;;;2.40;;
72286;SDS011;60221;45.696;16.076;2023-07-29T06:01:49;7.70;;;2.90;;
72286;SDS011;60221;45.696;16.076;2023-07-29T06:04:16;5.60;;;2.70;;
72286;SDS011;60221;45.696;16.076;2023-07-29T06:06:43;5.40;;;3.10;;
72286;SDS011;60221;45.696;16.076;2023-07-29T06:09:09;6.80;;;3.30;;
72286;SDS011;60221;45.696;16.076;2023-07-29T06:11:36;6.90;;;3.00;;
72286;SDS011;60221;45.696;16.076;2023-07-29T06:14:02;5.50;;;2.60;;
72286;SDS011;60221;45.696;16.076;2023-07-29T06:16:29;6.50;;;3.20;;
72286;SDS011;60221;45.696;16.076;2023-07-29T06:18:56;5.70;;;2.90;;
72286;SDS011;60221;45.696;16.076;2023-07-29T06:21:23;5.90;;;2.70;;
72286;SDS011;60221;45.696;16.076;2023-07-29T06:23:50;5.50;;;2.90;;
72286;SDS011;60221;45.696;16.076;2023-07-29T06:26:17;7.60;;;2.40;;
72286;SDS011;60221;45.696;16.076;2023-07-29T06:28:43;11.50;;;4.30;;
72286;SDS011;60221;45.696;16.076;2023-07-29T06:31:10;10.20;;;4.40;;
72286;SDS011;60221;45.696;16.076;2023-07-29T06:33:37;5.80;;;2.90;;
72286;SDS011;60221;45.696;16.076;2023-07-29T06:36:03;7.10;;;3.00;;
72286;SDS011;60221;45.696;16.076;2023-07-29T06:38:30;5.30;;;2.70;;
72286;SDS011;60221;45.696;16.076;2023-07-29T06:40:57;5.40;;;2.70;;
72286;SDS011;60221;45.696;16.076;2023-07-29T06:43:24;6.80;;;2.30;;
72286;SDS011;60221;45.696;16.076;2023-07-29T06:45:51;5.60;;;2.50;;
72286;SDS011;60221;45.696;16.076;2023-07-29T06:48:18;5.40;;;2.90;;
72286;SDS011;60221;45.696;16.076;2023-07-29T06:50:46;4.20;;;2.20;;
72286;SDS011;60221;45.696;16.076;2023-07-29T06:53:13;4.70;;;2.50;;
72286;SDS011;60221;45.696;16.076;2023-07-29T06:55:39;7.10;;;3.00;;
72286;SDS011;60221;45.696;16.076;2023-07-29T06:58:06;5.70;;;2.80;;
72286;SDS011;60221;45.696;16.076;2023-07-29T07:00:33;8.70;;;2.50;;
72286;SDS011;60221;45.696;16.076;2023-07-29T07:03:00;7.90;;;3.60;;
72286;SDS011;60221;45.696;16.076;2023-07-29T07:05:27;5.40;;;2.60;;
72286;SDS011;60221;45.696;16.076;2023-07-29T07:07:53;6.50;;;2.90;;
72286;SDS011;60221;45.696;16.076;2023-07-29T07:10:20;6.40;;;2.70;;
72286;SDS011;60221;45.696;16.076;2023-07-29T07:12:47;6.30;;;2.90;;
72286;SDS011;60221;45.696;16.076;2023-07-29T07:15:13;5.10;;;2.50;;
72286;SDS011;60221;45.696;16.076;2023-07-29T07:17:40;7.50;;;3.20;;
72286;SDS011;60221;45.696;16.076;2023-07-29T07:20:07;7.40;;;2.80;;
72286;SDS011;60221;45.696;16.076;2023-07-29T07:22:34;6.10;;;2.80;;
72286;SDS011;60221;45.696;16.076;2023-07-29T07:25:01;8.20;;;2.80;;
72286;SDS011;60221;45.696;16.076;2023-07-29T07:27:27;5.60;;;3.00;;
72286;SDS011;60221;45.696;16.076;2023-07-29T07:29:54;6.70;;;2.80;;
72286;SDS011;60221;45.696;16.076;2023-07-29T07:32:20;5.60;;;3.10;;
72286;SDS011;60221;45.696;16.076;2023-07-29T07:34:47;6.20;;;3.10;;
72286;SDS011;60221;45.696;16.076;2023-07-29T07:37:14;6.80;;;2.90;;
72286;SDS011;60221;45.696;16.076;2023-07-29T07:39:41;5.60;;;2.70;;
72286;SDS011;60221;45.696;16.076;2023-07-29T07:42:07;6.80;;;3.10;;
72286;SDS011;60221;45.696;16.076;2023-07-29T07:44:34;5.00;;;2.80;;
72286;SDS011;60221;45.696;16.076;2023-07-29T07:47:01;5.10;;;2.80;;
72286;SDS011;60221;45.696;16.076;2023-07-29T07:49:30;5.20;;;3.00;;
72286;SDS011;60221;45.696;16.076;2023-07-29T07:51:57;8.60;;;2.90;;
72286;SDS011;60221;45.696;16.076;2023-07-29T07:54:24;5.20;;;2.70;;
72286;SDS011;60221;45.696;16.076;2023-07-29T07:56:50;5.80;;;2.80;;
72286;SDS011;60221;45.696;16.076;2023-07-29T07:59:17;7.20;;;3.00;;
72286;SDS011;60221;45.696;16.076;2023-07-29T08:01:44;6.40;;;3.60;;
72286;SDS011;60221;45.696;16.076;2023-07-29T08:04:10;6.60;;;3.20;;
72286;SDS011;60221;45.696;16.076;2023-07-29T08:06:37;6.50;;;3.00;;
72286;SDS011;60221;45.696;16.076;2023-07-29T08:09:04;6.60;;;3.30;;
72286;SDS011;60221;45.696;16.076;2023-07-29T08:11:31;7.70;;;3.30;;
72286;SDS011;60221;45.696;16.076;2023-07-29T08:13:58;6.30;;;2.90;;
72286;SDS011;60221;45.696;16.076;2023-07-29T08:16:25;7.80;;;3.50;;
72286;SDS011;60221;45.696;16.076;2023-07-29T08:18:51;9.40;;;3.60;;
72286;SDS011;60221;45.696;16.076;2023-07-29T08:21:18;6.10;;;3.00;;
72286;SDS011;60221;45.696;16.076;2023-07-29T08:23:44;5.90;;;2.80;;
72286;SDS011;60221;45.696;16.076;2023-07-29T08:26:11;5.10;;;3.40;;
72286;SDS011;60221;45.696;16.076;2023-07-29T08:28:38;8.00;;;3.00;;
72286;SDS011;60221;45.696;16.076;2023-07-29T08:31:05;8.60;;;3.10;;
72286;SDS011;60221;45.696;16.076;2023-07-29T08:33:32;6.00;;;3.20;;
72286;SDS011;60221;45.696;16.076;2023-07-29T08:36:02;4.50;;;2.90;;
72286;SDS011;60221;45.696;16.076;2023-07-29T08:38:30;4.50;;;2.80;;
72286;SDS011;60221;45.696;16.076;2023-07-29T08:43:30;5.80;;;3.00;;
72286;SDS011;60221;45.696;16.076;2023-07-29T08:46:00;4.80;;;2.80;;
72286;SDS011;60221;45.696;16.076;2023-07-29T08:48:48;5.20;;;2.40;;
72286;SDS011;60221;45.696;16.076;2023-07-29T08:51:14;5.70;;;3.00;;
72286;SDS011;60221;45.696;16.076;2023-07-29T08:53:40;7.80;;;3.20;;
72286;SDS011;60221;45.696;16.076;2023-07-29T08:56:07;7.30;;;3.10;;
72286;SDS011;60221;45.696;16.076;2023-07-29T08:58:34;5.10;;;3.00;;
72286;SDS011;60221;45.696;16.076;2023-07-29T09:01:02;5.40;;;2.90;;
72286;SDS011;60221;45.696;16.076;2023-07-29T09:03:29;5.60;;;3.00;;
72286;SDS011;60221;45.696;16.076;2023-07-29T09:05:56;7.50;;;3.10;;
72286;SDS011;60221;45.696;16.076;2023-07-29T09:08:24;5.70;;;2.90;;
72286;SDS011;60221;45.696;16.076;2023-07-29T09:10:51;8.50;;;3.30;;
72286;SDS011;60221;45.696;16.076;2023-07-29T09:13:17;6.60;;;3.40;;
72286;SDS011;60221;45.696;16.076;2023-07-29T09:15:44;5.70;;;3.10;;
72286;SDS011;60221;45.696;16.076;2023-07-29T09:18:15;4.50;;;2.70;;
72286;SDS011;60221;45.696;16.076;2023-07-29T09:20:42;5.80;;;3.00;;
72286;SDS011;60221;45.696;16.076;2023-07-29T09:23:09;5.80;;;2.80;;
72286;SDS011;60221;45.696;16.076;2023-07-29T09:25:37;6.00;;;2.90;;
72286;SDS011;60221;45.696;16.076;2023-07-29T09:28:09;5.20;;;2.90;;
72286;SDS011;60221;45.696;16.076;2023-07-29T09:30:40;4.20;;;2.60;;
72286;SDS011;60221;45.696;16.076;2023-07-29T09:33:08;5.30;;;3.00;;
72286;SDS011;60221;45.696;16.076;2023-07-29T09:35:35;5.80;;;3.30;;
72286;SDS011;60221;45.696;16.076;2023-07-29T09:38:03;5.60;;;3.10;;
72286;SDS011;60221;45.696;16.076;2023-07-29T09:40:39;6.00;;;3.10;;
72286;SDS011;60221;45.696;16.076;2023-07-29T09:43:06;5.90;;;3.10;;
72286;SDS011;60221;45.696;16.076;2023-07-29T09:45:34;7.10;;;2.90;;
72286;SDS011;60221;45.696;16.076;2023-07-29T09:48:02;7.00;;;2.70;;
72286;SDS011;60221;45.696;16.076;2023-07-29T09:50:29;4.70;;;2.70;;
72286;SDS011;60221;45.696;16.076;2023-07-29T09:52:56;5.70;;;2.80;;
72286;SDS011;60221;45.696;16.076;2023-07-29T09:55:26;4.80;;;2.70;;
72286;SDS011;60221;45.696;16.076;2023-07-29T09:57:59;5.50;;;3.30;;
72286;SDS011;60221;45.696;16.076;2023-07-29T10:00:29;6.60;;;3.20;;
72286;SDS011;60221;45.696;16.076;2023-07-29T10:02:56;4.60;;;3.00;;
72286;SDS011;60221;45.696;16.076;2023-07-29T10:05:25;7.10;;;3.20;;
72286;SDS011;60221;45.696;16.076;2023-07-29T10:07:51;5.60;;;2.80;;
72286;SDS011;60221;45.696;16.076;2023-07-29T10:10:18;4.90;;;3.20;;
72286;SDS011;60221;45.696;16.076;2023-07-29T10:12:46;6.30;;;3.00;;
72286;SDS011;60221;45.696;16.076;2023-07-29T10:15:13;6.10;;;3.20;;
72286;SDS011;60221;45.696;16.076;2023-07-29T10:17:40;7.60;;;3.00;;
72286;SDS011;60221;45.696;16.076;2023-07-29T10:20:08;5.00;;;3.00;;
72286;SDS011;60221;45.696;16.076;2023-07-29T10:25:07;6.20;;;3.10;;
72286;SDS011;60221;45.696;16.076;2023-07-29T10:27:35;5.20;;;2.50;;
72286;SDS011;60221;45.696;16.076;2023-07-29T10:30:06;5.50;;;3.00;;
72286;SDS011;60221;45.696;16.076;2023-07-29T10:32:33;5.10;;;2.70;;
72286;SDS011;60221;45.696;16.076;2023-07-29T10:35:00;5.50;;;3.30;;
72286;SDS011;60221;45.696;16.076;2023-07-29T10:37:27;5.30;;;3.20;;
72286;SDS011;60221;45.696;16.076;2023-07-29T10:39:54;7.20;;;3.30;;
72286;SDS011;60221;45.696;16.076;2023-07-29T10:42:21;5.70;;;2.80;;
72286;SDS011;60221;45.696;16.076;2023-07-29T10:44:50;5.10;;;3.30;;
72286;SDS011;60221;45.696;16.076;2023-07-29T10:47:22;5.40;;;2.90;;
72286;SDS011;60221;45.696;16.076;2023-07-29T10:49:50;5.80;;;3.00;;
72286;SDS011;60221;45.696;16.076;2023-07-29T10:52:28;5.80;;;2.90;;
72286;SDS011;60221;45.696;16.076;2023-07-29T10:54:55;4.10;;;2.80;;
72286;SDS011;60221;45.696;16.076;2023-07-29T10:57:31;5.90;;;3.00;;
72286;SDS011;60221;45.696;16.076;2023-07-29T10:59:59;6.30;;;2.60;;
72286;SDS011;60221;45.696;16.076;2023-07-29T11:02:30;5.00;;;2.90;;
72286;SDS011;60221;45.696;16.076;2023-07-29T11:04:57;4.30;;;2.80;;
72286;SDS011;60221;45.696;16.076;2023-07-29T11:07:25;4.60;;;2.50;;
72286;SDS011;60221;45.696;16.076;2023-07-29T11:09:56;5.70;;;2.70;;
72286;SDS011;60221;45.696;16.076;2023-07-29T11:15:03;6.60;;;2.80;;
72286;SDS011;60221;45.696;16.076;2023-07-29T11:17:33;4.70;;;2.50;;
72286;SDS011;60221;45.696;16.076;2023-07-29T11:20:03;5.20;;;2.70;;
72286;SDS011;60221;45.696;16.076;2023-07-29T11:22:30;4.60;;;2.70;;
72286;SDS011;60221;45.696;16.076;2023-07-29T11:24:59;4.30;;;2.90;;
72286;SDS011;60221;45.696;16.076;2023-07-29T11:27:26;4.00;;;2.50;;
72286;SDS011;60221;45.696;16.076;2023-07-29T11:30:03;4.40;;;2.70;;
72286;SDS011;60221;45.696;16.076;2023-07-29T11:32:32;4.20;;;2.30;;
72286;SDS011;60221;45.696;16.076;2023-07-29T11:35:06;5.90;;;2.80;;
72286;SDS011;60221;45.696;16.076;2023-07-29T11:37:34;4.20;;;2.60;;
72286;SDS011;60221;45.696;16.076;2023-07-29T11:40:01;5.20;;;2.90;;
72286;SDS011;60221;45.696;16.076;2023-07-29T11:42:28;5.10;;;3.10;;
72286;SDS011;60221;45.696;16.076;2023-07-29T11:44:58;4.40;;;2.60;;
72286;SDS011;60221;45.696;16.076;2023-07-29T11:47:25;5.40;;;2.90;;
72286;SDS011;60221;45.696;16.076;2023-07-29T11:49:52;5.90;;;2.70;;
72286;SDS011;60221;45.696;16.076;2023-07-29T11:52:19;5.20;;;2.90;;
72286;SDS011;60221;45.696;16.076;2023-07-29T11:54:47;4.50;;;2.60;;
72286;SDS011;60221;45.696;16.076;2023-07-29T11:57:14;4.00;;;2.50;;
72286;SDS011;60221;45.696;16.076;2023-07-29T11:59:44;4.70;;;2.70;;
72286;SDS011;60221;45.696;16.076;2023-07-29T12:02:15;5.90;;;3.00;;
72286;SDS011;60221;45.696;16.076;2023-07-29T12:04:43;4.50;;;2.70;;
72286;SDS011;60221;45.696;16.076;2023-07-29T12:07:10;4.90;;;2.80;;
72286;SDS011;60221;45.696;16.076;2023-07-29T12:09:36;4.20;;;2.80;;
72286;SDS011;60221;45.696;16.076;2023-07-29T12:12:03;6.10;;;2.90;;
72286;SDS011;60221;45.696;16.076;2023-07-29T12:14:31;5.30;;;2.80;;
72286;SDS011;60221;45.696;16.076;2023-07-29T12:17:01;4.40;;;2.50;;
72286;SDS011;60221;45.696;16.076;2023-07-29T12:19:35;5.80;;;2.90;;
72286;SDS011;60221;45.696;16.076;2023-07-29T12:22:02;4.20;;;2.50;;
72286;SDS011;60221;45.696;16.076;2023-07-29T12:24:32;4.40;;;2.80;;
72286;SDS011;60221;45.696;16.076;2023-07-29T12:26:59;6.30;;;3.20;;
72286;SDS011;60221;45.696;16.076;2023-07-29T12:29:26;5.80;;;3.10;;
72286;SDS011;60221;45.696;16.076;2023-07-29T12:31:57;5.30;;;2.70;;
72286;SDS011;60221;45.696;16.076;2023-07-29T12:34:24;4.40;;;2.70;;
72286;SDS011;60221;45.696;16.076;2023-07-29T12:36:51;4.50;;;3.10;;
72286;SDS011;60221;45.696;16.076;2023-07-29T12:39:29;6.30;;;3.30;;
72286;SDS011;60221;45.696;16.076;2023-07-29T12:41:57;5.10;;;3.00;;
72286;SDS011;60221;45.696;16.076;2023-07-29T12:44:25;4.80;;;2.90;;
72286;SDS011;60221;45.696;16.076;2023-07-29T12:46:51;5.60;;;2.90;;
72286;SDS011;60221;45.696;16.076;2023-07-29T12:49:18;5.70;;;2.80;;
72286;SDS011;60221;45.696;16.076;2023-07-29T12:51:45;5.80;;;3.30;;
72286;SDS011;60221;45.696;16.076;2023-07-29T12:54:12;4.90;;;3.00;;
72286;SDS011;60221;45.696;16.076;2023-07-29T12:56:38;5.30;;;3.20;;
72286;SDS011;60221;45.696;16.076;2023-07-29T12:59:05;5.10;;;2.90;;
72286;SDS011;60221;45.696;16.076;2023-07-29T13:01:32;6.30;;;2.70;;
72286;SDS011;60221;45.696;16.076;2023-07-29T13:03:59;4.30;;;2.70;;
72286;SDS011;60221;45.696;16.076;2023-07-29T13:06:26;5.10;;;3.20;;
72286;SDS011;60221;45.696;16.076;2023-07-29T13:08:52;4.90;;;2.80;;
72286;SDS011;60221;45.696;16.076;2023-07-29T13:11:19;5.60;;;3.10;;
72286;SDS011;60221;45.696;16.076;2023-07-29T13:13:46;5.90;;;3.30;;
72286;SDS011;60221;45.696;16.076;2023-07-29T13:16:13;4.80;;;2.90;;
72286;SDS011;60221;45.696;16.076;2023-07-29T13:18:39;4.90;;;3.00;;
72286;SDS011;60221;45.696;16.076;2023-07-29T13:21:07;4.40;;;3.00;;
72286;SDS011;60221;45.696;16.076;2023-07-29T13:23:34;6.80;;;3.00;;
72286;SDS011;60221;45.696;16.076;2023-07-29T13:26:00;5.20;;;2.90;;
72286;SDS011;60221;45.696;16.076;2023-07-29T13:28:27;6.60;;;3.20;;
72286;SDS011;60221;45.696;16.076;2023-07-29T13:30:54;5.50;;;3.10;;
72286;SDS011;60221;45.696;16.076;2023-07-29T13:33:21;4.70;;;3.30;;
72286;SDS011;60221;45.696;16.076;2023-07-29T13:35:47;4.30;;;2.70;;
72286;SDS011;60221;45.696;16.076;2023-07-29T13:38:14;4.40;;;2.70;;
72286;SDS011;60221;45.696;16.076;2023-07-29T13:40:41;4.70;;;2.80;;
72286;SDS011;60221;45.696;16.076;2023-07-29T13:43:07;4.10;;;2.50;;
72286;SDS011;60221;45.696;16.076;2023-07-29T13:45:34;4.20;;;2.50;;
72286;SDS011;60221;45.696;16.076;2023-07-29T13:48:01;4.60;;;2.80;;
72286;SDS011;60221;45.696;16.076;2023-07-29T13:50:28;4.00;;;2.30;;
72286;SDS011;60221;45.696;16.076;2023-07-29T13:52:54;5.20;;;2.90;;
72286;SDS011;60221;45.696;16.076;2023-07-29T13:55:21;6.00;;;2.70;;
72286;SDS011;60221;45.696;16.076;2023-07-29T13:57:48;5.30;;;2.60;;
72286;SDS011;60221;45.696;16.076;2023-07-29T14:00:14;5.80;;;2.30;;
72286;SDS011;60221;45.696;16.076;2023-07-29T14:02:41;5.20;;;2.40;;
72286;SDS011;60221;45.696;16.076;2023-07-29T14:05:09;4.50;;;3.00;;
72286;SDS011;60221;45.696;16.076;2023-07-29T14:07:38;4.70;;;3.10;;
72286;SDS011;60221;45.696;16.076;2023-07-29T14:10:05;6.90;;;2.90;;
72286;SDS011;60221;45.696;16.076;2023-07-29T14:12:31;5.30;;;3.00;;
72286;SDS011;60221;45.696;16.076;2023-07-29T14:14:58;6.80;;;3.40;;
72286;SDS011;60221;45.696;16.076;2023-07-29T14:17:25;4.90;;;3.10;;
72286;SDS011;60221;45.696;16.076;2023-07-29T14:19:51;5.80;;;2.80;;
72286;SDS011;60221;45.696;16.076;2023-07-29T14:22:18;4.90;;;2.60;;
72286;SDS011;60221;45.696;16.076;2023-07-29T14:24:44;5.40;;;2.80;;
72286;SDS011;60221;45.696;16.076;2023-07-29T14:27:11;4.80;;;2.50;;
72286;SDS011;60221;45.696;16.076;2023-07-29T14:29:38;5.60;;;3.20;;
72286;SDS011;60221;45.696;16.076;2023-07-29T14:32:04;4.70;;;3.00;;
72286;SDS011;60221;45.696;16.076;2023-07-29T14:34:31;4.70;;;2.80;;
72286;SDS011;60221;45.696;16.076;2023-07-29T14:36:58;6.10;;;2.80;;
72286;SDS011;60221;45.696;16.076;2023-07-29T14:39:25;5.10;;;2.50;;
72286;SDS011;60221;45.696;16.076;2023-07-29T14:41:51;5.30;;;3.10;;
72286;SDS011;60221;45.696;16.076;2023-07-29T14:44:18;4.30;;;3.00;;
72286;SDS011;60221;45.696;16.076;2023-07-29T14:46:44;4.20;;;2.70;;
72286;SDS011;60221;45.696;16.076;2023-07-29T14:49:11;4.20;;;2.60;;